NWC710 ULLI-USDA
Flight info
| Callsign | NWC710 |
|---|---|
| Flight time | N/A |
| Altitude | 35000 |
| Route | PETAP1B PETAP T821 ARGIP M58 RIGNI L168 NRM M131 ULKAM T413 BANEP W94 PIPUK PIPUK1N |
| Aircraft | A21N/M-SDE3FGHIRWY/LB1 |
Departure
| Time | 2026-05-01 12:53 |
|---|---|
| Airport | Pulkovo Airport (ULLI) |
Arrival
| Time | N/A |
|---|---|
| Airport | Sabetta International Airport (USDA) |
| Time | Latitude | Longitude | Altitude | Speed | Heading |
|---|---|---|---|---|---|
| 2026-05-01 12:24 | 59.80230 | 30.26224 | 82 ft | 0 kts | 286° |
| 2026-05-01 12:43 | 59.80230 | 30.26230 | 85 ft | 2 kts | 286° |
| 2026-05-01 12:43 | 59.80225 | 30.26261 | 81 ft | 2 kts | 286° |
| 2026-05-01 12:44 | 59.80221 | 30.26292 | 83 ft | 2 kts | 286° |
| 2026-05-01 12:44 | 59.80216 | 30.26323 | 81 ft | 2 kts | 286° |
| 2026-05-01 12:44 | 59.80197 | 30.26371 | 81 ft | 2 kts | 353° |
| 2026-05-01 12:45 | 59.80166 | 30.26364 | 81 ft | 2 kts | 16° |
| 2026-05-01 12:45 | 59.80142 | 30.26349 | 84 ft | 4 kts | 17° |
| 2026-05-01 12:45 | 59.80136 | 30.26345 | 81 ft | 0 kts | 17° |
| 2026-05-01 12:46 | 59.80137 | 30.26346 | 81 ft | 1 kts | 17° |
| 2026-05-01 12:46 | 59.80158 | 30.26467 | 86 ft | 16 kts | 103° |
| 2026-05-01 12:46 | 59.80158 | 30.26618 | 81 ft | 9 kts | 30° |
| 2026-05-01 12:46 | 59.80211 | 30.26651 | 83 ft | 7 kts | 16° |
| 2026-05-01 12:47 | 59.80257 | 30.26679 | 85 ft | 6 kts | 17° |
| 2026-05-01 12:47 | 59.80316 | 30.26716 | 84 ft | 14 kts | 17° |
| 2026-05-01 12:47 | 59.80389 | 30.26762 | 83 ft | 6 kts | 27° |
| 2026-05-01 12:47 | 59.80400 | 30.26829 | 85 ft | 5 kts | 96° |
| 2026-05-01 12:48 | 59.80387 | 30.26913 | 84 ft | 10 kts | 106° |
| 2026-05-01 12:48 | 59.80352 | 30.27147 | 81 ft | 21 kts | 107° |
| 2026-05-01 12:48 | 59.80312 | 30.27414 | 83 ft | 20 kts | 106° |
| 2026-05-01 12:48 | 59.80274 | 30.27670 | 83 ft | 19 kts | 106° |
| 2026-05-01 12:49 | 59.80238 | 30.27920 | 80 ft | 18 kts | 106° |
| 2026-05-01 12:49 | 59.80203 | 30.28159 | 82 ft | 18 kts | 107° |
| 2026-05-01 12:49 | 59.80167 | 30.28387 | 80 ft | 17 kts | 107° |
| 2026-05-01 12:49 | 59.80135 | 30.28606 | 77 ft | 16 kts | 107° |
| 2026-05-01 12:50 | 59.80091 | 30.28899 | 71 ft | 28 kts | 106° |
| 2026-05-01 12:50 | 59.80032 | 30.29287 | 77 ft | 29 kts | 106° |
| 2026-05-01 12:50 | 59.79976 | 30.29665 | 77 ft | 28 kts | 106° |
| 2026-05-01 12:50 | 59.79936 | 30.29976 | 76 ft | 16 kts | 85° |
| 2026-05-01 12:51 | 59.79991 | 30.30136 | 74 ft | 0 kts | 48° |
| 2026-05-01 12:51 | 59.80059 | 30.30273 | 75 ft | 18 kts | 32° |
| 2026-05-01 12:52 | 59.80127 | 30.30185 | 71 ft | 0 kts | 287° |
| 2026-05-01 12:52 | 59.80241 | 30.29441 | 75 ft | 89 kts | 287° |
| 2026-05-01 12:52 | 59.80470 | 30.27893 | 80 ft | 142 kts | 287° |
| 2026-05-01 12:53 | 59.81147 | 30.23372 | 660 ft | 178 kts | 287° |
| 2026-05-01 12:53 | 59.81505 | 30.20992 | 1249 ft | 182 kts | 286° |
| 2026-05-01 12:53 | 59.81874 | 30.18503 | 1515 ft | 196 kts | 286° |
| 2026-05-01 12:54 | 59.82273 | 30.15782 | 1691 ft | 212 kts | 285° |
| 2026-05-01 12:54 | 59.83154 | 30.09778 | 2128 ft | 248 kts | 285° |
| 2026-05-01 12:54 | 59.83642 | 30.06441 | 2830 ft | 255 kts | 285° |
| 2026-05-01 12:55 | 59.84641 | 29.99605 | 4476 ft | 260 kts | 286° |
| 2026-05-01 12:55 | 59.85386 | 29.96315 | 5273 ft | 263 kts | 303° |
| 2026-05-01 12:55 | 59.86404 | 29.93285 | 6077 ft | 265 kts | 303° |
| 2026-05-01 12:56 | 59.87430 | 29.90240 | 6868 ft | 267 kts | 303° |
| 2026-05-01 12:56 | 59.88466 | 29.87139 | 7607 ft | 270 kts | 304° |
| 2026-05-01 12:56 | 59.89518 | 29.84000 | 8336 ft | 274 kts | 304° |
| 2026-05-01 12:56 | 59.90580 | 29.80834 | 9033 ft | 277 kts | 305° |
| 2026-05-01 12:57 | 59.91891 | 29.78004 | 9691 ft | 280 kts | 324° |
| 2026-05-01 12:57 | 59.95595 | 29.75789 | 11039 ft | 286 kts | 1° |
| 2026-05-01 12:57 | 59.97631 | 29.75988 | 11218 ft | 307 kts | 2° |
| 2026-05-01 12:58 | 59.99873 | 29.76246 | 11348 ft | 329 kts | 2° |
| 2026-05-01 12:58 | 60.02228 | 29.76534 | 11500 ft | 348 kts | 3° |
| 2026-05-01 12:58 | 60.04680 | 29.76843 | 11943 ft | 356 kts | 3° |
| 2026-05-01 12:59 | 60.09642 | 29.77441 | 12137 ft | 356 kts | 2° |
| 2026-05-01 12:59 | 60.12121 | 29.77732 | 12136 ft | 356 kts | 2° |
| 2026-05-01 12:59 | 60.17086 | 29.78290 | 12608 ft | 360 kts | 2° |
| 2026-05-01 13:00 | 60.22121 | 29.78854 | 13918 ft | 364 kts | 2° |
| 2026-05-01 13:00 | 60.24659 | 29.79140 | 14502 ft | 367 kts | 2° |
| 2026-05-01 13:01 | 60.29775 | 29.79998 | 15635 ft | 373 kts | 11° |
| 2026-05-01 13:01 | 60.32231 | 29.81705 | 16160 ft | 377 kts | 25° |
| 2026-05-01 13:01 | 60.36297 | 29.88484 | 17191 ft | 388 kts | 51° |
| 2026-05-01 13:02 | 60.37750 | 29.93130 | 17689 ft | 392 kts | 56° |
| 2026-05-01 13:07 | 60.68378 | 30.98426 | 25866 ft | 443 kts | 57° |
| 2026-05-01 13:07 | 60.69931 | 31.03867 | 26181 ft | 444 kts | 57° |
| 2026-05-01 13:07 | 60.71483 | 31.09332 | 26486 ft | 446 kts | 57° |
| 2026-05-01 13:08 | 60.73039 | 31.14834 | 26787 ft | 448 kts | 57° |
| 2026-05-01 13:08 | 60.74596 | 31.20352 | 27078 ft | 450 kts | 57° |
| 2026-05-01 13:08 | 60.76160 | 31.25911 | 27394 ft | 451 kts | 57° |
| 2026-05-01 13:08 | 60.77728 | 31.31500 | 27688 ft | 453 kts | 57° |
| 2026-05-01 13:09 | 60.79294 | 31.37097 | 27972 ft | 454 kts | 57° |
| 2026-05-01 13:09 | 60.80859 | 31.42707 | 28348 ft | 453 kts | 57° |
| 2026-05-01 13:09 | 60.82420 | 31.48312 | 28737 ft | 451 kts | 57° |
| 2026-05-01 13:09 | 60.83969 | 31.53890 | 29106 ft | 450 kts | 57° |
| 2026-05-01 13:10 | 60.85512 | 31.59453 | 29484 ft | 448 kts | 57° |
| 2026-05-01 13:10 | 60.86969 | 31.64708 | 29815 ft | 447 kts | 57° |
| 2026-05-01 13:10 | 60.88999 | 31.72042 | 30253 ft | 445 kts | 57° |
| 2026-05-01 13:10 | 60.90523 | 31.77557 | 30586 ft | 444 kts | 57° |
| 2026-05-01 13:11 | 60.91554 | 31.81296 | 30808 ft | 444 kts | 57° |
| 2026-05-01 13:11 | 60.93563 | 31.88614 | 31245 ft | 443 kts | 57° |
| 2026-05-01 13:11 | 60.95073 | 31.94140 | 31565 ft | 443 kts | 57° |
| 2026-05-01 13:11 | 60.96107 | 31.97844 | 31787 ft | 441 kts | 54° |
| 2026-05-01 13:12 | 60.97901 | 32.02915 | 32114 ft | 436 kts | 46° |
| 2026-05-01 13:12 | 60.99999 | 32.07379 | 32435 ft | 432 kts | 41° |
| 2026-05-01 13:12 | 61.02157 | 32.11676 | 32763 ft | 432 kts | 41° |
| 2026-05-01 13:12 | 61.04314 | 32.15986 | 33084 ft | 430 kts | 41° |
| 2026-05-01 13:13 | 61.06460 | 32.20293 | 33376 ft | 430 kts | 41° |
| 2026-05-01 13:13 | 61.08602 | 32.24607 | 33686 ft | 430 kts | 41° |
| 2026-05-01 13:13 | 61.10736 | 32.28921 | 33966 ft | 429 kts | 41° |
| 2026-05-01 13:13 | 61.12867 | 32.33235 | 34261 ft | 429 kts | 41° |
| 2026-05-01 13:14 | 61.14999 | 32.37554 | 34527 ft | 428 kts | 41° |
| 2026-05-01 13:14 | 61.17127 | 32.41870 | 34763 ft | 429 kts | 41° |
| 2026-05-01 13:14 | 61.19265 | 32.46215 | 34972 ft | 430 kts | 41° |
| 2026-05-01 13:15 | 61.23523 | 32.54918 | 35071 ft | 430 kts | 41° |
| 2026-05-01 13:15 | 61.27775 | 32.63643 | 35073 ft | 429 kts | 41° |
| 2026-05-01 13:16 | 61.32085 | 32.72244 | 35063 ft | 428 kts | 40° |
| 2026-05-01 13:16 | 61.36418 | 32.80767 | 35067 ft | 428 kts | 40° |
| 2026-05-01 13:17 | 61.45032 | 32.97987 | 35062 ft | 429 kts | 40° |
| 2026-05-01 13:18 | 61.50932 | 33.12145 | 35061 ft | 432 kts | 49° |
| 2026-05-01 13:18 | 61.54644 | 33.22162 | 35060 ft | 432 kts | 49° |
| 2026-05-01 13:19 | 61.58335 | 33.32124 | 35062 ft | 432 kts | 49° |
| 2026-05-01 13:20 | 61.63860 | 33.47141 | 35065 ft | 433 kts | 49° |
| 2026-05-01 13:20 | 61.67536 | 33.57189 | 35062 ft | 433 kts | 49° |
| 2026-05-01 13:21 | 61.73031 | 33.72303 | 35058 ft | 433 kts | 49° |
| 2026-05-01 13:21 | 61.76689 | 33.82404 | 35059 ft | 433 kts | 49° |
| 2026-05-01 13:22 | 61.80331 | 33.92518 | 35050 ft | 433 kts | 49° |
| 2026-05-01 13:22 | 61.83972 | 34.02678 | 35050 ft | 433 kts | 49° |
| 2026-05-01 13:23 | 61.87614 | 34.12855 | 35046 ft | 433 kts | 46° |
| 2026-05-01 13:23 | 61.91934 | 34.21536 | 35049 ft | 427 kts | 36° |
| 2026-05-01 13:24 | 61.96500 | 34.29597 | 35052 ft | 427 kts | 37° |
| 2026-05-01 13:25 | 62.03332 | 34.41802 | 35054 ft | 427 kts | 37° |
| 2026-05-01 13:25 | 62.07876 | 34.49994 | 35053 ft | 428 kts | 37° |
| 2026-05-01 13:26 | 62.12421 | 34.58220 | 35054 ft | 428 kts | 37° |
| 2026-05-01 13:26 | 62.16964 | 34.66454 | 35056 ft | 428 kts | 37° |
| 2026-05-01 13:27 | 62.21504 | 34.74711 | 35052 ft | 429 kts | 37° |
| 2026-05-01 13:27 | 62.28311 | 34.87164 | 35050 ft | 429 kts | 37° |
| 2026-05-01 13:28 | 62.35113 | 34.99680 | 35047 ft | 429 kts | 37° |
| 2026-05-01 13:29 | 62.44161 | 35.16542 | 35048 ft | 430 kts | 38° |
| 2026-05-01 13:31 | 62.57647 | 35.42299 | 35057 ft | 431 kts | 38° |
| 2026-05-01 13:32 | 62.68895 | 35.63967 | 35051 ft | 431 kts | 38° |
| 2026-05-01 13:33 | 62.80066 | 35.85727 | 35046 ft | 431 kts | 39° |
| 2026-05-01 13:34 | 62.88982 | 36.03281 | 35036 ft | 431 kts | 39° |
| 2026-05-01 13:35 | 62.95708 | 36.16394 | 35033 ft | 432 kts | 38° |
| 2026-05-01 13:36 | 63.02451 | 36.29584 | 35027 ft | 432 kts | 38° |
| 2026-05-01 13:36 | 63.09166 | 36.42869 | 35024 ft | 433 kts | 39° |
| 2026-05-01 13:37 | 63.13644 | 36.51784 | 35021 ft | 433 kts | 39° |
| 2026-05-01 13:37 | 63.18117 | 36.60734 | 35021 ft | 434 kts | 39° |
| 2026-05-01 13:38 | 63.24338 | 36.75360 | 35015 ft | 437 kts | 47° |
| 2026-05-01 13:39 | 63.28217 | 36.85755 | 35018 ft | 437 kts | 47° |
| 2026-05-01 13:39 | 63.32097 | 36.96186 | 35013 ft | 437 kts | 47° |
| 2026-05-01 13:40 | 63.35960 | 37.06669 | 35009 ft | 438 kts | 47° |
| 2026-05-01 13:41 | 63.46954 | 37.36647 | 34991 ft | 437 kts | 47° |
| 2026-05-01 13:42 | 63.50795 | 37.47207 | 34986 ft | 440 kts | 48° |
| 2026-05-01 13:42 | 63.54649 | 37.57864 | 34994 ft | 440 kts | 47° |
| 2026-05-01 13:43 | 63.58465 | 37.68515 | 34971 ft | 437 kts | 48° |
| 2026-05-01 13:43 | 63.62269 | 37.79173 | 34966 ft | 437 kts | 48° |
| 2026-05-01 13:44 | 63.66086 | 37.89857 | 34968 ft | 438 kts | 48° |
| 2026-05-01 13:44 | 63.69899 | 38.00594 | 34973 ft | 438 kts | 48° |
| 2026-05-01 13:45 | 63.73698 | 38.11366 | 34970 ft | 438 kts | 48° |
| 2026-05-01 13:45 | 63.77481 | 38.22170 | 34970 ft | 438 kts | 48° |
| 2026-05-01 13:46 | 63.81288 | 38.33080 | 34967 ft | 439 kts | 48° |
| 2026-05-01 13:46 | 63.85067 | 38.43940 | 34962 ft | 439 kts | 48° |
| 2026-05-01 13:47 | 63.88840 | 38.54816 | 34963 ft | 439 kts | 49° |
| 2026-05-01 13:47 | 63.92607 | 38.65731 | 34955 ft | 439 kts | 49° |
| 2026-05-01 13:48 | 63.96358 | 38.76680 | 34954 ft | 439 kts | 49° |
| 2026-05-01 13:48 | 64.00099 | 38.87685 | 34951 ft | 439 kts | 49° |
| 2026-05-01 13:49 | 64.03834 | 38.98711 | 34944 ft | 440 kts | 49° |
| 2026-05-01 13:49 | 64.07581 | 39.09800 | 34943 ft | 441 kts | 49° |
| 2026-05-01 13:50 | 64.11319 | 39.20898 | 34937 ft | 440 kts | 49° |
| 2026-05-01 13:50 | 64.15048 | 39.32038 | 34933 ft | 441 kts | 49° |
| 2026-05-01 13:51 | 64.18770 | 39.43217 | 34933 ft | 441 kts | 50° |
| 2026-05-01 13:51 | 64.22479 | 39.54445 | 34934 ft | 441 kts | 50° |
| 2026-05-01 13:52 | 64.26183 | 39.65703 | 34938 ft | 441 kts | 50° |
| 2026-05-01 13:52 | 64.29888 | 39.77009 | 34941 ft | 442 kts | 50° |
| 2026-05-01 13:53 | 64.33582 | 39.88327 | 34944 ft | 442 kts | 50° |
| 2026-05-01 13:53 | 64.39102 | 40.05423 | 34947 ft | 443 kts | 50° |
| 2026-05-01 13:54 | 64.42760 | 40.16860 | 34945 ft | 442 kts | 50° |
| 2026-05-01 13:54 | 64.46413 | 40.28336 | 34942 ft | 443 kts | 51° |
| 2026-05-01 13:55 | 64.50058 | 40.39858 | 34940 ft | 443 kts | 51° |
| 2026-05-01 13:55 | 64.53701 | 40.51405 | 34943 ft | 443 kts | 51° |
| 2026-05-01 13:56 | 64.57349 | 40.63065 | 34943 ft | 443 kts | 51° |
| 2026-05-01 13:56 | 64.61084 | 40.74349 | 34946 ft | 441 kts | 44° |
| 2026-05-01 13:57 | 64.64570 | 40.83158 | 34946 ft | 441 kts | 45° |
| 2026-05-01 13:57 | 64.69423 | 40.95480 | 34952 ft | 441 kts | 45° |
| 2026-05-01 13:58 | 64.73562 | 41.06085 | 34954 ft | 441 kts | 45° |
| 2026-05-01 13:58 | 64.77681 | 41.16727 | 34959 ft | 441 kts | 45° |
| 2026-05-01 13:59 | 64.81804 | 41.27400 | 34957 ft | 441 kts | 45° |
| 2026-05-01 13:59 | 64.85922 | 41.38091 | 34951 ft | 441 kts | 45° |
| 2026-05-01 14:00 | 64.90028 | 41.48811 | 34947 ft | 441 kts | 45° |
| 2026-05-01 14:00 | 64.94127 | 41.59571 | 34948 ft | 441 kts | 45° |
| 2026-05-01 14:01 | 64.98214 | 41.70393 | 34949 ft | 441 kts | 46° |
| 2026-05-01 14:01 | 65.02272 | 41.81266 | 34944 ft | 441 kts | 46° |
| 2026-05-01 14:02 | 65.06319 | 41.92203 | 34935 ft | 441 kts | 46° |
| 2026-05-01 14:02 | 65.10369 | 42.03146 | 34934 ft | 442 kts | 46° |
| 2026-05-01 14:03 | 65.14419 | 42.14121 | 34945 ft | 442 kts | 46° |
| 2026-05-01 14:03 | 65.18446 | 42.25156 | 34938 ft | 442 kts | 46° |
| 2026-05-01 14:04 | 65.22499 | 42.36180 | 34941 ft | 442 kts | 45° |
| 2026-05-01 14:04 | 65.25958 | 42.45275 | 34938 ft | 441 kts | 45° |
| 2026-05-01 14:05 | 65.30758 | 42.57876 | 34937 ft | 442 kts | 45° |
| 2026-05-01 14:05 | 65.34862 | 42.68834 | 34942 ft | 442 kts | 46° |
| 2026-05-01 14:06 | 65.38779 | 42.80221 | 34947 ft | 444 kts | 50° |
| 2026-05-01 14:06 | 65.42484 | 42.92093 | 34947 ft | 444 kts | 51° |
| 2026-05-01 14:07 | 65.46177 | 43.04082 | 34943 ft | 443 kts | 50° |
| 2026-05-01 14:08 | 65.51758 | 43.21843 | 34947 ft | 443 kts | 50° |
| 2026-05-01 14:08 | 65.55486 | 43.33665 | 34946 ft | 443 kts | 50° |
| 2026-05-01 14:09 | 65.59200 | 43.45536 | 34945 ft | 443 kts | 50° |
| 2026-05-01 14:09 | 65.62899 | 43.57483 | 34951 ft | 444 kts | 50° |
| 2026-05-01 14:10 | 65.66589 | 43.69468 | 34952 ft | 444 kts | 50° |
| 2026-05-01 14:10 | 65.70265 | 43.81484 | 34954 ft | 444 kts | 51° |
| 2026-05-01 14:11 | 65.73939 | 43.93536 | 34947 ft | 443 kts | 51° |
| 2026-05-01 14:11 | 65.79431 | 44.11619 | 34939 ft | 443 kts | 51° |
| 2026-05-01 14:12 | 65.83070 | 44.23745 | 34937 ft | 443 kts | 51° |
| 2026-05-01 14:12 | 65.86647 | 44.35995 | 34930 ft | 444 kts | 52° |
| 2026-05-01 14:13 | 65.89532 | 44.46401 | 34930 ft | 444 kts | 53° |
| 2026-05-01 14:13 | 65.92962 | 44.58918 | 34937 ft | 445 kts | 53° |
| 2026-05-01 14:14 | 65.96426 | 44.71481 | 34931 ft | 445 kts | 53° |
| 2026-05-01 14:14 | 65.99921 | 44.84133 | 34932 ft | 445 kts | 53° |
| 2026-05-01 14:15 | 66.03382 | 44.96748 | 34931 ft | 446 kts | 53° |
| 2026-05-01 14:15 | 66.06829 | 45.09424 | 34927 ft | 446 kts | 53° |
| 2026-05-01 14:16 | 66.10278 | 45.22182 | 34927 ft | 447 kts | 53° |
| 2026-05-01 14:16 | 66.13711 | 45.34979 | 34925 ft | 448 kts | 54° |
| 2026-05-01 14:17 | 66.17154 | 45.47850 | 34928 ft | 448 kts | 54° |
| 2026-05-01 14:17 | 66.20586 | 45.60719 | 34929 ft | 448 kts | 54° |
| 2026-05-01 14:18 | 66.24009 | 45.73652 | 34925 ft | 448 kts | 54° |
| 2026-05-01 14:18 | 66.26842 | 45.84419 | 34925 ft | 449 kts | 54° |
| 2026-05-01 14:19 | 66.30815 | 45.99637 | 34935 ft | 449 kts | 54° |
| 2026-05-01 14:19 | 66.34198 | 46.12693 | 34929 ft | 449 kts | 54° |
| 2026-05-01 14:20 | 66.39267 | 46.32339 | 34932 ft | 450 kts | 55° |
| 2026-05-01 14:21 | 66.42633 | 46.45516 | 34933 ft | 449 kts | 55° |
| 2026-05-01 14:21 | 66.45979 | 46.58704 | 34925 ft | 450 kts | 55° |
| 2026-05-01 14:22 | 66.51006 | 46.78557 | 34924 ft | 450 kts | 55° |
| 2026-05-01 14:22 | 66.54337 | 46.91867 | 34925 ft | 451 kts | 56° |
| 2026-05-01 14:23 | 66.57666 | 47.05229 | 34925 ft | 451 kts | 56° |
| 2026-05-01 14:23 | 66.60986 | 47.18656 | 34925 ft | 452 kts | 56° |
| 2026-05-01 14:24 | 66.64289 | 47.32139 | 34925 ft | 452 kts | 56° |
| 2026-05-01 14:24 | 66.67594 | 47.45654 | 34929 ft | 453 kts | 56° |
| 2026-05-01 14:25 | 66.70915 | 47.59296 | 34930 ft | 453 kts | 56° |
| 2026-05-01 14:25 | 66.74177 | 47.72824 | 34929 ft | 454 kts | 56° |
| 2026-05-01 14:26 | 66.78389 | 47.94357 | 34928 ft | 455 kts | 62° |
| 2026-05-01 14:27 | 66.81105 | 48.09002 | 34925 ft | 456 kts | 63° |
| 2026-05-01 14:27 | 66.83785 | 48.23488 | 34923 ft | 457 kts | 63° |
| 2026-05-01 14:28 | 66.87825 | 48.45563 | 34926 ft | 457 kts | 63° |
| 2026-05-01 14:28 | 66.90475 | 48.60182 | 34925 ft | 458 kts | 63° |
| 2026-05-01 14:29 | 66.93132 | 48.74945 | 34925 ft | 458 kts | 63° |
| 2026-05-01 14:30 | 66.98411 | 49.04679 | 34929 ft | 458 kts | 64° |
| 2026-05-01 14:31 | 67.02335 | 49.27010 | 34931 ft | 459 kts | 64° |
| 2026-05-01 14:31 | 67.04917 | 49.41837 | 34933 ft | 459 kts | 64° |
| 2026-05-01 14:32 | 67.07519 | 49.56890 | 34936 ft | 459 kts | 64° |
| 2026-05-01 14:32 | 67.10098 | 49.71878 | 34941 ft | 459 kts | 64° |
| 2026-05-01 14:33 | 67.12653 | 49.86917 | 34943 ft | 459 kts | 65° |
| 2026-05-01 14:33 | 67.15195 | 50.02006 | 34945 ft | 460 kts | 65° |
| 2026-05-01 14:34 | 67.17734 | 50.17126 | 34935 ft | 460 kts | 65° |
| 2026-05-01 14:34 | 67.20256 | 50.32285 | 34935 ft | 460 kts | 65° |
| 2026-05-01 14:35 | 67.22763 | 50.47496 | 34938 ft | 461 kts | 65° |
| 2026-05-01 14:35 | 67.25258 | 50.62750 | 34943 ft | 461 kts | 66° |
| 2026-05-01 14:36 | 67.27743 | 50.78038 | 34943 ft | 461 kts | 66° |
| 2026-05-01 14:36 | 67.30203 | 50.93363 | 34946 ft | 461 kts | 66° |
| 2026-05-01 14:37 | 67.32693 | 51.08728 | 34952 ft | 461 kts | 65° |
| 2026-05-01 14:37 | 67.35230 | 51.24012 | 34951 ft | 462 kts | 65° |
| 2026-05-01 14:38 | 67.37754 | 51.39357 | 34950 ft | 462 kts | 66° |
| 2026-05-01 14:38 | 67.40245 | 51.54750 | 34940 ft | 462 kts | 66° |
| 2026-05-01 14:39 | 67.42707 | 51.70208 | 34943 ft | 462 kts | 66° |
| 2026-05-01 14:39 | 67.45159 | 51.85703 | 34945 ft | 462 kts | 66° |
| 2026-05-01 14:40 | 67.47606 | 52.01220 | 34948 ft | 462 kts | 66° |
| 2026-05-01 14:40 | 67.50011 | 52.16796 | 34941 ft | 463 kts | 67° |
| 2026-05-01 14:41 | 67.52344 | 52.32458 | 34937 ft | 463 kts | 68° |
| 2026-05-01 14:41 | 67.54659 | 52.48188 | 34941 ft | 463 kts | 68° |
| 2026-05-01 14:42 | 67.56973 | 52.63917 | 34941 ft | 463 kts | 68° |
| 2026-05-01 14:42 | 67.59287 | 52.79689 | 34942 ft | 463 kts | 68° |
| 2026-05-01 14:43 | 67.61581 | 52.95483 | 34943 ft | 464 kts | 68° |
| 2026-05-01 14:43 | 67.64093 | 53.11052 | 34933 ft | 463 kts | 58° |
| 2026-05-01 14:44 | 67.67904 | 53.24645 | 34941 ft | 462 kts | 51° |
| 2026-05-01 14:44 | 67.73879 | 53.44609 | 34940 ft | 463 kts | 51° |
| 2026-05-01 14:45 | 67.79153 | 53.62457 | 34939 ft | 463 kts | 51° |
| 2026-05-01 14:46 | 67.83109 | 53.75900 | 34936 ft | 463 kts | 51° |
| 2026-05-01 14:46 | 67.89029 | 53.96129 | 34936 ft | 463 kts | 52° |
| 2026-05-01 14:47 | 67.92945 | 54.09700 | 34940 ft | 463 kts | 52° |
| 2026-05-01 14:48 | 67.98785 | 54.30204 | 34938 ft | 463 kts | 52° |
| 2026-05-01 14:48 | 68.04595 | 54.50841 | 34941 ft | 463 kts | 52° |
| 2026-05-01 14:49 | 68.12312 | 54.78508 | 34940 ft | 464 kts | 53° |
| 2026-05-01 14:50 | 68.19988 | 55.06367 | 34938 ft | 464 kts | 53° |
| 2026-05-01 14:51 | 68.25743 | 55.27367 | 34938 ft | 465 kts | 53° |
| 2026-05-01 14:52 | 68.31482 | 55.48502 | 34933 ft | 465 kts | 53° |
| 2026-05-01 14:53 | 68.37201 | 55.69772 | 34937 ft | 466 kts | 53° |
| 2026-05-01 14:53 | 68.41001 | 55.84051 | 34931 ft | 466 kts | 54° |
| 2026-05-01 14:54 | 68.44800 | 55.98452 | 34931 ft | 466 kts | 54° |
| 2026-05-01 14:54 | 68.48572 | 56.12821 | 34931 ft | 467 kts | 54° |
| 2026-05-01 14:55 | 68.52316 | 56.27183 | 34934 ft | 467 kts | 54° |
| 2026-05-01 14:55 | 68.56076 | 56.41692 | 34951 ft | 467 kts | 54° |
| 2026-05-01 14:56 | 68.59828 | 56.56213 | 34960 ft | 467 kts | 54° |
| 2026-05-01 14:56 | 68.63557 | 56.70795 | 34966 ft | 467 kts | 54° |
| 2026-05-01 14:57 | 68.67275 | 56.85441 | 34971 ft | 467 kts | 55° |
| 2026-05-01 14:57 | 68.72826 | 57.07470 | 34972 ft | 467 kts | 55° |
| 2026-05-01 14:58 | 68.76528 | 57.22174 | 34972 ft | 467 kts | 55° |
| 2026-05-01 14:58 | 68.80223 | 57.36892 | 34974 ft | 467 kts | 55° |
| 2026-05-01 14:59 | 68.83908 | 57.51725 | 34973 ft | 467 kts | 55° |
| 2026-05-01 14:59 | 68.87565 | 57.66606 | 34973 ft | 468 kts | 56° |
| 2026-05-01 15:00 | 68.93062 | 57.89021 | 34975 ft | 468 kts | 55° |
| 2026-05-01 15:01 | 68.96816 | 58.03808 | 34976 ft | 467 kts | 54° |
| 2026-05-01 15:01 | 69.00583 | 58.18583 | 34977 ft | 467 kts | 54° |
| 2026-05-01 15:02 | 69.04308 | 58.33470 | 34975 ft | 467 kts | 55° |
| 2026-05-01 15:02 | 69.07995 | 58.48440 | 34974 ft | 467 kts | 55° |
| 2026-05-01 15:03 | 69.11675 | 58.63442 | 34973 ft | 467 kts | 55° |
| 2026-05-01 15:03 | 69.15352 | 58.78487 | 34973 ft | 467 kts | 56° |
| 2026-05-01 15:04 | 69.19005 | 58.93598 | 34972 ft | 468 kts | 56° |
| 2026-05-01 15:04 | 69.22621 | 59.08849 | 34970 ft | 468 kts | 57° |
| 2026-05-01 15:05 | 69.26139 | 59.24263 | 34971 ft | 468 kts | 57° |
| 2026-05-01 15:05 | 69.29650 | 59.39875 | 34971 ft | 468 kts | 57° |
| 2026-05-01 15:06 | 69.33145 | 59.55421 | 34971 ft | 468 kts | 57° |
| 2026-05-01 15:06 | 69.36645 | 59.70977 | 34976 ft | 468 kts | 57° |
| 2026-05-01 15:07 | 69.40129 | 59.86613 | 34976 ft | 468 kts | 58° |
| 2026-05-01 15:07 | 69.43578 | 60.02299 | 34978 ft | 468 kts | 58° |
| 2026-05-01 15:08 | 69.47017 | 60.17995 | 34975 ft | 467 kts | 58° |
| 2026-05-01 15:08 | 69.50453 | 60.33730 | 34971 ft | 468 kts | 58° |
| 2026-05-01 15:09 | 69.53871 | 60.49552 | 34974 ft | 468 kts | 58° |
| 2026-05-01 15:09 | 69.57285 | 60.65403 | 34976 ft | 468 kts | 58° |
| 2026-05-01 15:10 | 69.60700 | 60.81293 | 34971 ft | 468 kts | 58° |
| 2026-05-01 15:10 | 69.65789 | 61.05228 | 34972 ft | 468 kts | 58° |
| 2026-05-01 15:11 | 69.70849 | 61.29309 | 34969 ft | 469 kts | 59° |
| 2026-05-01 15:12 | 69.74202 | 61.45448 | 34970 ft | 469 kts | 59° |
| 2026-05-01 15:12 | 69.77125 | 61.62238 | 34965 ft | 469 kts | 71° |
| 2026-05-01 15:12 | 69.78159 | 61.71175 | 34966 ft | 469 kts | 71° |
| 2026-05-01 15:14 | 69.83305 | 62.16005 | 34969 ft | 469 kts | 72° |
| 2026-05-01 15:14 | 69.86339 | 62.43010 | 34971 ft | 469 kts | 72° |
| 2026-05-01 15:15 | 69.90327 | 62.79159 | 34970 ft | 470 kts | 72° |
| 2026-05-01 15:16 | 69.94228 | 63.15511 | 34971 ft | 471 kts | 73° |
| 2026-05-01 15:18 | 69.99030 | 63.61234 | 34976 ft | 472 kts | 73° |
| 2026-05-01 15:19 | 70.02487 | 63.94968 | 34977 ft | 471 kts | 74° |
| 2026-05-01 15:19 | 70.05257 | 64.22597 | 34977 ft | 471 kts | 74° |
| 2026-05-01 15:20 | 70.07989 | 64.50293 | 34979 ft | 471 kts | 74° |
| 2026-05-01 15:21 | 70.09778 | 64.68803 | 34982 ft | 471 kts | 75° |
| 2026-05-01 15:21 | 70.11551 | 64.87324 | 34982 ft | 471 kts | 75° |
| 2026-05-01 15:22 | 70.14172 | 65.15138 | 34975 ft | 470 kts | 75° |
| 2026-05-01 15:22 | 70.15891 | 65.33697 | 34973 ft | 470 kts | 75° |
| 2026-05-01 15:23 | 70.17599 | 65.52284 | 34971 ft | 470 kts | 75° |
| 2026-05-01 15:23 | 70.19279 | 65.70907 | 34968 ft | 470 kts | 76° |
| 2026-05-01 15:24 | 70.20934 | 65.89560 | 34964 ft | 470 kts | 76° |
| 2026-05-01 15:24 | 70.22567 | 66.08223 | 34961 ft | 470 kts | 76° |
| 2026-05-01 15:25 | 70.24128 | 66.26996 | 34963 ft | 470 kts | 77° |
| 2026-05-01 15:25 | 70.25627 | 66.45819 | 34965 ft | 470 kts | 77° |
| 2026-05-01 15:26 | 70.27100 | 66.64663 | 34968 ft | 470 kts | 77° |
| 2026-05-01 15:26 | 70.28572 | 66.83536 | 34970 ft | 470 kts | 77° |
| 2026-05-01 15:27 | 70.30031 | 67.02396 | 34972 ft | 470 kts | 77° |
| 2026-05-01 15:28 | 70.32170 | 67.30718 | 34968 ft | 469 kts | 78° |
| 2026-05-01 15:28 | 70.33567 | 67.49630 | 34967 ft | 469 kts | 78° |
| 2026-05-01 15:29 | 70.35631 | 67.78096 | 34945 ft | 470 kts | 78° |
| 2026-05-01 15:30 | 70.38325 | 68.16257 | 34946 ft | 472 kts | 78° |
| 2026-05-01 15:31 | 70.43729 | 68.51492 | 34958 ft | 473 kts | 54° |
| 2026-05-01 15:31 | 70.47561 | 68.67457 | 34956 ft | 473 kts | 54° |
| 2026-05-01 15:32 | 70.55103 | 68.99498 | 33404 ft | 469 kts | 55° |
| 2026-05-01 15:33 | 70.60829 | 69.24082 | 27614 ft | 481 kts | 55° |
| 2026-05-01 15:34 | 70.66456 | 69.48530 | 22483 ft | 457 kts | 55° |